sensor_id;sensor_type;location;lat;lon;timestamp;P1;P4;P2;P0;N10;N4;N25;N1;N05;TS
44530;SPS30;30240;47.418;0.700;2023-04-25T00:01:58;2.320185;;2.255977;;;;;;;
44530;SPS30;30240;47.418;0.700;2023-04-25T00:04:23;2.1220741;;2.0879936;;;;;;;
44530;SPS30;30240;47.418;0.700;2023-04-25T00:06:48;2.1220741;;2.0879936;;;;;;;
44530;SPS30;30240;47.418;0.700;2023-04-25T00:09:13;2.1846242;;2.1299777;;;;;;;
44530;SPS30;30240;47.418;0.700;2023-04-25T00:11:39;2.1700542;;2.1117375;;;;;;;
44530;SPS30;30240;47.418;0.700;2023-04-25T00:14:04;2.4903548;;2.4213245;;;;;;;
44530;SPS30;30240;47.418;0.700;2023-04-25T00:16:28;3.0045197;;2.9265575;;;;;;;
44530;SPS30;30240;47.418;0.700;2023-04-25T00:18:53;3.0045197;;2.9265575;;;;;;;
44530;SPS30;30240;47.418;0.700;2023-04-25T00:21:19;2.2454717;;2.195742;;;;;;;
44530;SPS30;30240;47.418;0.700;2023-04-25T00:23:43;2.4159367;;2.372763;;;;;;;
44530;SPS30;30240;47.418;0.700;2023-04-25T00:26:08;2.245582;;2.1937943;;;;;;;
44530;SPS30;30240;47.418;0.700;2023-04-25T00:28:33;2.2059927;;2.131627;;;;;;;
44530;SPS30;30240;47.418;0.700;2023-04-25T00:30:58;2.2059927;;2.131627;;;;;;;
44530;SPS30;30240;47.418;0.700;2023-04-25T00:33:23;3.393624;;3.3155591;;;;;;;
44530;SPS30;30240;47.418;0.700;2023-04-25T00:35:48;2.2070234;;2.158965;;;;;;;
44530;SPS30;30240;47.418;0.700;2023-04-25T00:38:13;2.46301;;2.4153373;;;;;;;
44530;SPS30;30240;47.418;0.700;2023-04-25T00:40:38;3.028712;;2.9627213;;;;;;;
44530;SPS30;30240;47.418;0.700;2023-04-25T00:43:04;3.028712;;2.9627213;;;;;;;
44530;SPS30;30240;47.418;0.700;2023-04-25T00:45:29;2.543433;;2.4698265;;;;;;;
44530;SPS30;30240;47.418;0.700;2023-04-25T00:47:54;2.1829052;;2.1273537;;;;;;;
44530;SPS30;30240;47.418;0.700;2023-04-25T00:50:18;2.48124;;2.4418685;;;;;;;
44530;SPS30;30240;47.418;0.700;2023-04-25T00:52:44;2.1283078;;2.090615;;;;;;;
44530;SPS30;30240;47.418;0.700;2023-04-25T00:55:09;2.1283078;;2.090615;;;;;;;
44530;SPS30;30240;47.418;0.700;2023-04-25T00:57:34;2.3357427;;2.3030286;;;;;;;
44530;SPS30;30240;47.418;0.700;2023-04-25T00:59:59;4.2107487;;4.1682205;;;;;;;
44530;SPS30;30240;47.418;0.700;2023-04-25T01:02:23;2.888059;;2.8573143;;;;;;;
44530;SPS30;30240;47.418;0.700;2023-04-25T01:04:48;2.6317155;;2.5864363;;;;;;;
44530;SPS30;30240;47.418;0.700;2023-04-25T01:07:13;3.0952866;;3.0577683;;;;;;;
44530;SPS30;30240;47.418;0.700;2023-04-25T01:09:38;3.0952866;;3.0577683;;;;;;;
44530;SPS30;30240;47.418;0.700;2023-04-25T01:12:03;3.0018291;;2.9495473;;;;;;;
44530;SPS30;30240;47.418;0.700;2023-04-25T01:14:28;2.699157;;2.6704624;;;;;;;
44530;SPS30;30240;47.418;0.700;2023-04-25T01:16:54;2.773723;;2.7260242;;;;;;;
44530;SPS30;30240;47.418;0.700;2023-04-25T01:19:18;2.5270655;;2.4634805;;;;;;;
44530;SPS30;30240;47.418;0.700;2023-04-25T01:21:43;2.5270655;;2.4634805;;;;;;;
44530;SPS30;30240;47.418;0.700;2023-04-25T01:24:08;2.731888;;2.6831405;;;;;;;
44530;SPS30;30240;47.418;0.700;2023-04-25T01:26:33;4.716333;;4.6096554;;;;;;;
44530;SPS30;30240;47.418;0.700;2023-04-25T01:28:58;3.6110842;;3.5355222;;;;;;;
44530;SPS30;30240;47.418;0.700;2023-04-25T01:31:23;2.5701392;;2.517762;;;;;;;
44530;SPS30;30240;47.418;0.700;2023-04-25T01:33:48;2.5701392;;2.517762;;;;;;;
44530;SPS30;30240;47.418;0.700;2023-04-25T01:36:13;2.5279615;;2.4788635;;;;;;;
44530;SPS30;30240;47.418;0.700;2023-04-25T01:38:38;2.5752237;;2.5117145;;;;;;;
44530;SPS30;30240;47.418;0.700;2023-04-25T01:41:03;2.601972;;2.5205183;;;;;;;
44530;SPS30;30240;47.418;0.700;2023-04-25T01:43:28;2.779276;;2.7188396;;;;;;;
44530;SPS30;30240;47.418;0.700;2023-04-25T01:45:53;2.779276;;2.7188396;;;;;;;
44530;SPS30;30240;47.418;0.700;2023-04-25T01:48:19;2.4271731;;2.3987708;;;;;;;
44530;SPS30;30240;47.418;0.700;2023-04-25T01:50:44;2.7054334;;2.6438308;;;;;;;
44530;SPS30;30240;47.418;0.700;2023-04-25T01:53:09;2.5233557;;2.4788485;;;;;;;
44530;SPS30;30240;47.418;0.700;2023-04-25T01:55:34;2.786919;;2.7425773;;;;;;;
44530;SPS30;30240;47.418;0.700;2023-04-25T01:57:58;2.786919;;2.7425773;;;;;;;
44530;SPS30;30240;47.418;0.700;2023-04-25T02:00:23;2.2194586;;2.2062075;;;;;;;
44530;SPS30;30240;47.418;0.700;2023-04-25T02:02:49;2.562042;;2.5618186;;;;;;;
44530;SPS30;30240;47.418;0.700;2023-04-25T02:05:13;1.7463114;;1.7221748;;;;;;;
44530;SPS30;30240;47.418;0.700;2023-04-25T02:07:38;2.9815676;;2.945762;;;;;;;
44530;SPS30;30240;47.418;0.700;2023-04-25T02:10:04;2.9815676;;2.945762;;;;;;;
44530;SPS30;30240;47.418;0.700;2023-04-25T02:12:28;2.5054688;;2.4759696;;;;;;;
44530;SPS30;30240;47.418;0.700;2023-04-25T02:14:53;2.3096104;;2.2741446;;;;;;;
44530;SPS30;30240;47.418;0.700;2023-04-25T02:17:18;1.6919551;;1.6571902;;;;;;;
44530;SPS30;30240;47.418;0.700;2023-04-25T02:19:43;2.5333664;;2.5012586;;;;;;;
44530;SPS30;30240;47.418;0.700;2023-04-25T02:22:08;2.5333664;;2.5012586;;;;;;;
44530;SPS30;30240;47.418;0.700;2023-04-25T02:24:34;2.281619;;2.2392066;;;;;;;
44530;SPS30;30240;47.418;0.700;2023-04-25T02:26:59;2.7002459;;2.669876;;;;;;;
44530;SPS30;30240;47.418;0.700;2023-04-25T02:29:24;2.7087896;;2.676699;;;;;;;
44530;SPS30;30240;47.418;0.700;2023-04-25T02:31:48;2.8749156;;2.844164;;;;;;;
44530;SPS30;30240;47.418;0.700;2023-04-25T02:34:14;2.797308;;2.763942;;;;;;;
44530;SPS30;30240;47.418;0.700;2023-04-25T02:36:38;2.797308;;2.763942;;;;;;;
44530;SPS30;30240;47.418;0.700;2023-04-25T02:39:04;3.1769903;;3.143638;;;;;;;
44530;SPS30;30240;47.418;0.700;2023-04-25T02:41:28;2.5878813;;2.5312345;;;;;;;
44530;SPS30;30240;47.418;0.700;2023-04-25T02:43:53;2.6401687;;2.6034222;;;;;;;
44530;SPS30;30240;47.418;0.700;2023-04-25T02:46:18;2.4861789;;2.4850318;;;;;;;
44530;SPS30;30240;47.418;0.700;2023-04-25T02:48:43;2.4861789;;2.4850318;;;;;;;
44530;SPS30;30240;47.418;0.700;2023-04-25T02:51:08;2.4453382;;2.4381015;;;;;;;
44530;SPS30;30240;47.418;0.700;2023-04-25T02:53:33;2.6708755;;2.6631196;;;;;;;
44530;SPS30;30240;47.418;0.700;2023-04-25T02:55:58;2.5594664;;2.5511258;;;;;;;
44530;SPS30;30240;47.418;0.700;2023-04-25T02:58:23;3.0708437;;3.0639977;;;;;;;
44530;SPS30;30240;47.418;0.700;2023-04-25T03:00:48;3.0708437;;3.0639977;;;;;;;
44530;SPS30;30240;47.418;0.700;2023-04-25T03:03:14;2.712811;;2.6643312;;;;;;;
44530;SPS30;30240;47.418;0.700;2023-04-25T03:05:38;3.629309;;3.5191705;;;;;;;
44530;SPS30;30240;47.418;0.700;2023-04-25T03:08:04;2.9305654;;2.9030318;;;;;;;
44530;SPS30;30240;47.418;0.700;2023-04-25T03:10:28;3.6976671;;3.697665;;;;;;;
44530;SPS30;30240;47.418;0.700;2023-04-25T03:12:53;3.6976671;;3.697665;;;;;;;
44530;SPS30;30240;47.418;0.700;2023-04-25T03:15:18;3.6809607;;3.6587765;;;;;;;
44530;SPS30;30240;47.418;0.700;2023-04-25T03:17:43;3.267778;;3.247747;;;;;;;
44530;SPS30;30240;47.418;0.700;2023-04-25T03:20:09;2.946611;;2.909826;;;;;;;
44530;SPS30;30240;47.418;0.700;2023-04-25T03:22:33;2.888429;;2.8726707;;;;;;;
44530;SPS30;30240;47.418;0.700;2023-04-25T03:24:58;2.888429;;2.8726707;;;;;;;
44530;SPS30;30240;47.418;0.700;2023-04-25T03:27:23;3.2124116;;3.1930683;;;;;;;
44530;SPS30;30240;47.418;0.700;2023-04-25T03:29:49;4.113393;;4.088059;;;;;;;
44530;SPS30;30240;47.418;0.700;2023-04-25T03:32:13;2.9315305;;2.9007862;;;;;;;
44530;SPS30;30240;47.418;0.700;2023-04-25T03:34:39;4.1058407;;4.067666;;;;;;;
44530;SPS30;30240;47.418;0.700;2023-04-25T03:37:03;4.1058407;;4.067666;;;;;;;
44530;SPS30;30240;47.418;0.700;2023-04-25T03:39:28;4.793752;;4.7361593;;;;;;;
44530;SPS30;30240;47.418;0.700;2023-04-25T03:41:53;5.054517;;5.0363564;;;;;;;
44530;SPS30;30240;47.418;0.700;2023-04-25T03:44:18;9.561328;;9.471638;;;;;;;
44530;SPS30;30240;47.418;0.700;2023-04-25T03:46:43;11.817957;;11.817957;;;;;;;
44530;SPS30;30240;47.418;0.700;2023-04-25T03:49:08;11.817957;;11.817957;;;;;;;
44530;SPS30;30240;47.418;0.700;2023-04-25T03:51:33;10.30293;;10.302206;;;;;;;
44530;SPS30;30240;47.418;0.700;2023-04-25T03:53:58;10.664716;;10.557626;;;;;;;
44530;SPS30;30240;47.418;0.700;2023-04-25T03:56:23;10.664612;;10.570436;;;;;;;
44530;SPS30;30240;47.418;0.700;2023-04-25T03:58:48;7.770484;;7.770484;;;;;;;
44530;SPS30;30240;47.418;0.700;2023-04-25T04:01:13;9.026588;;8.901689;;;;;;;
44530;SPS30;30240;47.418;0.700;2023-04-25T04:03:38;9.026588;;8.901689;;;;;;;
44530;SPS30;30240;47.418;0.700;2023-04-25T04:06:04;9.174349;;9.15812;;;;;;;
44530;SPS30;30240;47.418;0.700;2023-04-25T04:08:28;17.127321;;16.711369;;;;;;;
44530;SPS30;30240;47.418;0.700;2023-04-25T04:10:53;21.701542;;21.450073;;;;;;;
44530;SPS30;30240;47.418;0.700;2023-04-25T04:13:19;13.650858;;13.362013;;;;;;;
44530;SPS30;30240;47.418;0.700;2023-04-25T04:15:43;13.650858;;13.362013;;;;;;;
44530;SPS30;30240;47.418;0.700;2023-04-25T04:18:08;10.306647;;10.213117;;;;;;;
44530;SPS30;30240;47.418;0.700;2023-04-25T04:20:33;9.91879;;9.747718;;;;;;;
44530;SPS30;30240;47.418;0.700;2023-04-25T04:22:59;8.908369;;8.761262;;;;;;;
44530;SPS30;30240;47.418;0.700;2023-04-25T04:25:23;9.7532835;;9.6564245;;;;;;;
44530;SPS30;30240;47.418;0.700;2023-04-25T04:27:48;9.7532835;;9.6564245;;;;;;;
44530;SPS30;30240;47.418;0.700;2023-04-25T04:30:14;6.358247;;6.296937;;;;;;;
44530;SPS30;30240;47.418;0.700;2023-04-25T04:32:38;12.087294;;11.840317;;;;;;;
44530;SPS30;30240;47.418;0.700;2023-04-25T04:35:04;10.129738;;9.857052;;;;;;;
44530;SPS30;30240;47.418;0.700;2023-04-25T04:37:28;5.2152376;;5.10823;;;;;;;
44530;SPS30;30240;47.418;0.700;2023-04-25T04:39:53;5.2152376;;5.10823;;;;;;;
44530;SPS30;30240;47.418;0.700;2023-04-25T04:42:18;7.760152;;7.4883943;;;;;;;
44530;SPS30;30240;47.418;0.700;2023-04-25T04:44:43;6.9771266;;6.7586555;;;;;;;
44530;SPS30;30240;47.418;0.700;2023-04-25T04:47:08;6.8191905;;6.4301987;;;;;;;
44530;SPS30;30240;47.418;0.700;2023-04-25T04:49:33;4.8739586;;4.7301292;;;;;;;
44530;SPS30;30240;47.418;0.700;2023-04-25T04:51:58;4.8739586;;4.7301292;;;;;;;
44530;SPS30;30240;47.418;0.700;2023-04-25T04:54:23;4.8391356;;4.740187;;;;;;;
44530;SPS30;30240;47.418;0.700;2023-04-25T04:56:48;4.9918365;;4.865397;;;;;;;
44530;SPS30;30240;47.418;0.700;2023-04-25T04:59:13;4.7662086;;4.611777;;;;;;;
44530;SPS30;30240;47.418;0.700;2023-04-25T05:01:38;4.624455;;4.5627737;;;;;;;
44530;SPS30;30240;47.418;0.700;2023-04-25T05:04:04;4.624455;;4.5627737;;;;;;;
44530;SPS30;30240;47.418;0.700;2023-04-25T05:06:29;5.124502;;5.051547;;;;;;;
44530;SPS30;30240;47.418;0.700;2023-04-25T05:08:53;4.758506;;4.6764164;;;;;;;
44530;SPS30;30240;47.418;0.700;2023-04-25T05:11:18;4.104381;;4.069216;;;;;;;
44530;SPS30;30240;47.418;0.700;2023-04-25T05:13:43;4.3793488;;4.331189;;;;;;;
44530;SPS30;30240;47.418;0.700;2023-04-25T05:16:08;4.3793488;;4.331189;;;;;;;
44530;SPS30;30240;47.418;0.700;2023-04-25T05:18:34;3.44392;;3.3586495;;;;;;;
44530;SPS30;30240;47.418;0.700;2023-04-25T05:20:58;4.446319;;4.363462;;;;;;;
44530;SPS30;30240;47.418;0.700;2023-04-25T05:23:23;4.3328815;;4.231643;;;;;;;
44530;SPS30;30240;47.418;0.700;2023-04-25T05:25:48;5.020901;;4.8844395;;;;;;;
44530;SPS30;30240;47.418;0.700;2023-04-25T05:28:13;5.020901;;4.8844395;;;;;;;
44530;SPS30;30240;47.418;0.700;2023-04-25T05:30:39;4.5028996;;4.40449;;;;;;;
44530;SPS30;30240;47.418;0.700;2023-04-25T05:33:04;3.462218;;3.391508;;;;;;;
44530;SPS30;30240;47.418;0.700;2023-04-25T05:35:29;3.4288144;;3.385193;;;;;;;
44530;SPS30;30240;47.418;0.700;2023-04-25T05:37:53;4.0356045;;3.9851904;;;;;;;
44530;SPS30;30240;47.418;0.700;2023-04-25T05:40:18;4.2077208;;4.168946;;;;;;;
44530;SPS30;30240;47.418;0.700;2023-04-25T05:42:43;4.2077208;;4.168946;;;;;;;
44530;SPS30;30240;47.418;0.700;2023-04-25T05:45:09;4.5498896;;4.4945006;;;;;;;
44530;SPS30;30240;47.418;0.700;2023-04-25T05:47:33;3.4323528;;3.3855011;;;;;;;
44530;SPS30;30240;47.418;0.700;2023-04-25T05:49:58;3.8378026;;3.7853663;;;;;;;
44530;SPS30;30240;47.418;0.700;2023-04-25T05:52:23;3.5601234;;3.4910698;;;;;;;
44530;SPS30;30240;47.418;0.700;2023-04-25T05:54:49;3.5601234;;3.4910698;;;;;;;
44530;SPS30;30240;47.418;0.700;2023-04-25T05:57:22;4.152793;;4.1180453;;;;;;;
44530;SPS30;30240;47.418;0.700;2023-04-25T05:59:38;4.521359;;4.497799;;;;;;;
44530;SPS30;30240;47.418;0.700;2023-04-25T06:02:03;4.298038;;4.298037;;;;;;;
44530;SPS30;30240;47.418;0.700;2023-04-25T06:04:28;4.228373;;4.212188;;;;;;;
44530;SPS30;30240;47.418;0.700;2023-04-25T06:06:53;4.228373;;4.212188;;;;;;;
44530;SPS30;30240;47.418;0.700;2023-04-25T06:09:18;3.5901043;;3.519593;;;;;;;
44530;SPS30;30240;47.418;0.700;2023-04-25T06:11:43;4.932691;;4.862647;;;;;;;
44530;SPS30;30240;47.418;0.700;2023-04-25T06:14:08;3.156081;;3.0995116;;;;;;;
44530;SPS30;30240;47.418;0.700;2023-04-25T06:16:34;2.7602565;;2.6952097;;;;;;;
44530;SPS30;30240;47.418;0.700;2023-04-25T06:18:58;2.7602565;;2.6952097;;;;;;;
44530;SPS30;30240;47.418;0.700;2023-04-25T06:21:23;3.700581;;3.5723355;;;;;;;
44530;SPS30;30240;47.418;0.700;2023-04-25T06:23:49;3.5219657;;3.4340754;;;;;;;
44530;SPS30;30240;47.418;0.700;2023-04-25T06:26:13;3.504918;;3.4305282;;;;;;;
44530;SPS30;30240;47.418;0.700;2023-04-25T06:28:38;4.2181945;;4.1147876;;;;;;;
44530;SPS30;30240;47.418;0.700;2023-04-25T06:31:03;4.2181945;;4.1147876;;;;;;;
44530;SPS30;30240;47.418;0.700;2023-04-25T06:33:29;3.3805149;;3.3390777;;;;;;;
44530;SPS30;30240;47.418;0.700;2023-04-25T06:35:53;3.9145057;;3.8853416;;;;;;;
44530;SPS30;30240;47.418;0.700;2023-04-25T06:38:18;3.5814419;;3.5466003;;;;;;;
44530;SPS30;30240;47.418;0.700;2023-04-25T06:40:43;4.5645165;;4.493309;;;;;;;
44530;SPS30;30240;47.418;0.700;2023-04-25T06:43:09;4.5645165;;4.493309;;;;;;;
44530;SPS30;30240;47.418;0.700;2023-04-25T06:45:33;4.1384115;;4.1057515;;;;;;;
44530;SPS30;30240;47.418;0.700;2023-04-25T06:47:58;4.4069996;;4.330789;;;;;;;
44530;SPS30;30240;47.418;0.700;2023-04-25T06:50:23;4.019447;;3.9190927;;;;;;;
44530;SPS30;30240;47.418;0.700;2023-04-25T06:52:49;4.5166187;;4.4606647;;;;;;;
44530;SPS30;30240;47.418;0.700;2023-04-25T06:55:13;4.5166187;;4.4606647;;;;;;;
44530;SPS30;30240;47.418;0.700;2023-04-25T06:57:38;5.0987687;;5.007946;;;;;;;
44530;SPS30;30240;47.418;0.700;2023-04-25T07:00:05;4.430134;;4.3446493;;;;;;;
44530;SPS30;30240;47.418;0.700;2023-04-25T07:02:28;4.177357;;4.0461636;;;;;;;
44530;SPS30;30240;47.418;0.700;2023-04-25T07:04:54;3.6416044;;3.5758297;;;;;;;
44530;SPS30;30240;47.418;0.700;2023-04-25T07:07:19;3.856153;;3.7968142;;;;;;;
44530;SPS30;30240;47.418;0.700;2023-04-25T07:09:43;3.856153;;3.7968142;;;;;;;
44530;SPS30;30240;47.418;0.700;2023-04-25T07:12:08;4.2335534;;4.1836753;;;;;;;
44530;SPS30;30240;47.418;0.700;2023-04-25T07:14:34;4.3310046;;4.2664924;;;;;;;
44530;SPS30;30240;47.418;0.700;2023-04-25T07:16:58;3.3029304;;3.2738733;;;;;;;
44530;SPS30;30240;47.418;0.700;2023-04-25T07:19:23;3.9436374;;3.9119024;;;;;;;
44530;SPS30;30240;47.418;0.700;2023-04-25T07:21:49;3.9436374;;3.9119024;;;;;;;
44530;SPS30;30240;47.418;0.700;2023-04-25T07:24:13;3.3315358;;3.2992465;;;;;;;
44530;SPS30;30240;47.418;0.700;2023-04-25T07:26:38;3.902069;;3.8390574;;;;;;;
44530;SPS30;30240;47.418;0.700;2023-04-25T07:29:04;3.9110458;;3.8739986;;;;;;;
44530;SPS30;30240;47.418;0.700;2023-04-25T07:31:28;4.3221955;;4.268445;;;;;;;
44530;SPS30;30240;47.418;0.700;2023-04-25T07:33:53;4.3221955;;4.268445;;;;;;;
44530;SPS30;30240;47.418;0.700;2023-04-25T07:36:19;3.897942;;3.8176537;;;;;;;
44530;SPS30;30240;47.418;0.700;2023-04-25T07:38:44;4.338382;;4.2477;;;;;;;
44530;SPS30;30240;47.418;0.700;2023-04-25T07:41:08;4.0230484;;3.9521496;;;;;;;
44530;SPS30;30240;47.418;0.700;2023-04-25T07:43:33;4.54552;;4.473961;;;;;;;
44530;SPS30;30240;47.418;0.700;2023-04-25T07:46:01;4.54552;;4.473961;;;;;;;
44530;SPS30;30240;47.418;0.700;2023-04-25T07:48:23;4.974834;;4.8936286;;;;;;;
44530;SPS30;30240;47.418;0.700;2023-04-25T07:50:48;3.3913507;;3.3431244;;;;;;;
44530;SPS30;30240;47.418;0.700;2023-04-25T07:53:13;3.3851795;;3.3573658;;;;;;;
44530;SPS30;30240;47.418;0.700;2023-04-25T07:55:39;3.4919994;;3.4065068;;;;;;;
44530;SPS30;30240;47.418;0.700;2023-04-25T07:58:04;3.4919994;;3.4065068;;;;;;;
44530;SPS30;30240;47.418;0.700;2023-04-25T08:00:34;3.998606;;3.9494781;;;;;;;
44530;SPS30;30240;47.418;0.700;2023-04-25T08:02:54;4.5104194;;4.4201045;;;;;;;
44530;SPS30;30240;47.418;0.700;2023-04-25T08:05:19;3.700692;;3.6346323;;;;;;;
44530;SPS30;30240;47.418;0.700;2023-04-25T08:07:43;4.048162;;3.9790967;;;;;;;
44530;SPS30;30240;47.418;0.700;2023-04-25T08:10:08;4.048162;;3.9790967;;;;;;;
44530;SPS30;30240;47.418;0.700;2023-04-25T08:12:33;3.622482;;3.6089468;;;;;;;
44530;SPS30;30240;47.418;0.700;2023-04-25T08:14:58;4.0512347;;4.034397;;;;;;;
44530;SPS30;30240;47.418;0.700;2023-04-25T08:17:23;4.0310264;;3.998463;;;;;;;
44530;SPS30;30240;47.418;0.700;2023-04-25T08:19:49;3.5810857;;3.551179;;;;;;;
44530;SPS30;30240;47.418;0.700;2023-04-25T08:22:13;3.5810857;;3.551179;;;;;;;
44530;SPS30;30240;47.418;0.700;2023-04-25T08:24:38;3.3735175;;3.3204234;;;;;;;
44530;SPS30;30240;47.418;0.700;2023-04-25T08:27:03;3.4328651;;3.364758;;;;;;;
44530;SPS30;30240;47.418;0.700;2023-04-25T08:29:28;3.6026993;;3.5783024;;;;;;;
44530;SPS30;30240;47.418;0.700;2023-04-25T08:31:53;3.360381;;3.2828534;;;;;;;
44530;SPS30;30240;47.418;0.700;2023-04-25T08:34:18;3.360381;;3.2828534;;;;;;;
44530;SPS30;30240;47.418;0.700;2023-04-25T08:36:43;3.8050854;;3.759145;;;;;;;
44530;SPS30;30240;47.418;0.700;2023-04-25T08:39:08;2.489699;;2.4752986;;;;;;;
44530;SPS30;30240;47.418;0.700;2023-04-25T08:41:34;3.212191;;3.1950328;;;;;;;
44530;SPS30;30240;47.418;0.700;2023-04-25T08:43:58;3.08713;;3.0696976;;;;;;;
44530;SPS30;30240;47.418;0.700;2023-04-25T08:46:24;3.2120943;;3.190307;;;;;;;
44530;SPS30;30240;47.418;0.700;2023-04-25T08:48:49;3.2120943;;3.190307;;;;;;;
44530;SPS30;30240;47.418;0.700;2023-04-25T08:51:15;2.259659;;2.259659;;;;;;;
44530;SPS30;30240;47.418;0.700;2023-04-25T08:53:38;2.4366055;;2.4366055;;;;;;;
44530;SPS30;30240;47.418;0.700;2023-04-25T08:56:04;2.6961303;;2.6862414;;;;;;;
44530;SPS30;30240;47.418;0.700;2023-04-25T08:58:29;2.761477;;2.7459474;;;;;;;
44530;SPS30;30240;47.418;0.700;2023-04-25T09:00:54;2.761477;;2.7459474;;;;;;;
44530;SPS30;30240;47.418;0.700;2023-04-25T09:03:18;2.8312957;;2.820385;;;;;;;
44530;SPS30;30240;47.418;0.700;2023-04-25T09:05:44;3.9459484;;3.9045677;;;;;;;
44530;SPS30;30240;47.418;0.700;2023-04-25T09:08:09;3.1328983;;3.0845141;;;;;;;
44530;SPS30;30240;47.418;0.700;2023-04-25T09:10:34;1.9359589;;1.9150716;;;;;;;
44530;SPS30;30240;47.418;0.700;2023-04-25T09:13:02;1.9359589;;1.9150716;;;;;;;
44530;SPS30;30240;47.418;0.700;2023-04-25T09:15:24;1.7229007;;1.7127385;;;;;;;
44530;SPS30;30240;47.418;0.700;2023-04-25T09:17:55;2.7055984;;2.6890974;;;;;;;
44530;SPS30;30240;47.418;0.700;2023-04-25T09:20:14;2.1490407;;2.1489644;;;;;;;
44530;SPS30;30240;47.418;0.700;2023-04-25T09:22:39;2.0799966;;2.0799966;;;;;;;
44530;SPS30;30240;47.418;0.700;2023-04-25T09:25:07;2.0799966;;2.0799966;;;;;;;
44530;SPS30;30240;47.418;0.700;2023-04-25T09:27:28;2.0862336;;2.0862336;;;;;;;
44530;SPS30;30240;47.418;0.700;2023-04-25T09:29:56;2.233155;;2.2295313;;;;;;;
44530;SPS30;30240;47.418;0.700;2023-04-25T09:32:19;2.5578458;;2.5491133;;;;;;;
44530;SPS30;30240;47.418;0.700;2023-04-25T09:34:46;2.8241448;;2.8056881;;;;;;;
44530;SPS30;30240;47.418;0.700;2023-04-25T09:37:09;2.8241448;;2.8056881;;;;;;;
44530;SPS30;30240;47.418;0.700;2023-04-25T09:39:34;2.1993499;;2.1761773;;;;;;;
44530;SPS30;30240;47.418;0.700;2023-04-25T09:41:59;1.7948098;;1.7921412;;;;;;;
44530;SPS30;30240;47.418;0.700;2023-04-25T09:44:23;2.1293721;;2.1289167;;;;;;;
44530;SPS30;30240;47.418;0.700;2023-04-25T09:46:49;2.2139342;;2.2139342;;;;;;;
44530;SPS30;30240;47.418;0.700;2023-04-25T09:49:14;2.2139342;;2.2139342;;;;;;;
44530;SPS30;30240;47.418;0.700;2023-04-25T09:51:38;1.8623769;;1.8530818;;;;;;;
44530;SPS30;30240;47.418;0.700;2023-04-25T09:54:03;1.97575;;1.9649616;;;;;;;
44530;SPS30;30240;47.418;0.700;2023-04-25T09:56:28;2.4349246;;2.4098327;;;;;;;
44530;SPS30;30240;47.418;0.700;2023-04-25T09:58:53;2.0887089;;2.0556548;;;;;;;
44530;SPS30;30240;47.418;0.700;2023-04-25T10:01:19;2.0887089;;2.0556548;;;;;;;
44530;SPS30;30240;47.418;0.700;2023-04-25T10:03:43;1.972026;;1.9592103;;;;;;;
44530;SPS30;30240;47.418;0.700;2023-04-25T10:06:09;2.3187275;;2.3125505;;;;;;;
44530;SPS30;30240;47.418;0.700;2023-04-25T10:08:34;2.2662768;;2.2597928;;;;;;;
44530;SPS30;30240;47.418;0.700;2023-04-25T10:10:59;2.1594994;;2.156366;;;;;;;
44530;SPS30;30240;47.418;0.700;2023-04-25T10:13:23;1.5948966;;1.5895852;;;;;;;
44530;SPS30;30240;47.418;0.700;2023-04-25T10:15:48;1.5948966;;1.5895852;;;;;;;
44530;SPS30;30240;47.418;0.700;2023-04-25T10:18:14;1.5563202;;1.5475982;;;;;;;
44530;SPS30;30240;47.418;0.700;2023-04-25T10:20:39;1.7163459;;1.7156154;;;;;;;
44530;SPS30;30240;47.418;0.700;2023-04-25T10:23:06;1.6565561;;1.6565561;;;;;;;
44530;SPS30;30240;47.418;0.700;2023-04-25T10:25:29;1.9935031;;1.9935031;;;;;;;
44530;SPS30;30240;47.418;0.700;2023-04-25T10:27:54;1.9935031;;1.9935031;;;;;;;
44530;SPS30;30240;47.418;0.700;2023-04-25T10:30:19;1.8435395;;1.8407054;;;;;;;
44530;SPS30;30240;47.418;0.700;2023-04-25T10:32:44;1.9471118;;1.9471118;;;;;;;
44530;SPS30;30240;47.418;0.700;2023-04-25T10:35:10;2.146216;;2.138339;;;;;;;
44530;SPS30;30240;47.418;0.700;2023-04-25T10:37:34;2.0684202;;2.0684202;;;;;;;
44530;SPS30;30240;47.418;0.700;2023-04-25T10:39:58;2.0684202;;2.0684202;;;;;;;
44530;SPS30;30240;47.418;0.700;2023-04-25T10:40:07;2.0684202;;2.0684202;;;;;;;
44530;SPS30;30240;47.418;0.700;2023-04-25T10:42:23;2.2907157;;2.2907143;;;;;;;
44530;SPS30;30240;47.418;0.700;2023-04-25T10:45:02;1.8734406;;1.8734406;;;;;;;
44530;SPS30;30240;47.418;0.700;2023-04-25T10:47:13;2.3811932;;2.3811932;;;;;;;
44530;SPS30;30240;47.418;0.700;2023-04-25T10:47:18;2.3811932;;2.3811932;;;;;;;
44530;SPS30;30240;47.418;0.700;2023-04-25T10:47:34;2.3811932;;2.3811932;;;;;;;
44530;SPS30;30240;47.418;0.700;2023-04-25T10:49:41;2.2949805;;2.2784524;;;;;;;
44530;SPS30;30240;47.418;0.700;2023-04-25T10:52:12;2.2949805;;2.2784524;;;;;;;
44530;SPS30;30240;47.418;0.700;2023-04-25T10:54:29;2.3654017;;2.3552618;;;;;;;
44530;SPS30;30240;47.418;0.700;2023-04-25T10:56:53;6.1486416;;6.1486416;;;;;;;
44530;SPS30;30240;47.418;0.700;2023-04-25T10:59:19;14.287087;;14.287087;;;;;;;
44530;SPS30;30240;47.418;0.700;2023-04-25T11:01:44;14.244376;;14.244371;;;;;;;
44530;SPS30;30240;47.418;0.700;2023-04-25T11:04:20;14.244376;;14.244371;;;;;;;
44530;SPS30;30240;47.418;0.700;2023-04-25T11:06:37;2.2791717;;2.2791717;;;;;;;
44530;SPS30;30240;47.418;0.700;2023-04-25T11:06:42;2.2791717;;2.2791717;;;;;;;
44530;SPS30;30240;47.418;0.700;2023-04-25T11:08:59;9.879192;;9.806848;;;;;;;
44530;SPS30;30240;47.418;0.700;2023-04-25T11:11:23;2.3835266;;2.38343;;;;;;;
44530;SPS30;30240;47.418;0.700;2023-04-25T11:13:49;2.3297422;;2.3297422;;;;;;;
44530;SPS30;30240;47.418;0.700;2023-04-25T11:16:13;2.3297422;;2.3297422;;;;;;;
44530;SPS30;30240;47.418;0.700;2023-04-25T11:18:40;1.9739965;;1.973757;;;;;;;
44530;SPS30;30240;47.418;0.700;2023-04-25T11:21:04;2.0882134;;2.0882134;;;;;;;
44530;SPS30;30240;47.418;0.700;2023-04-25T11:23:29;1.9814849;;1.9800771;;;;;;;
44530;SPS30;30240;47.418;0.700;2023-04-25T11:25:54;1.9142079;;1.9094661;;;;;;;
44530;SPS30;30240;47.418;0.700;2023-04-25T11:28:20;1.9142079;;1.9094661;;;;;;;
44530;SPS30;30240;47.418;0.700;2023-04-25T11:30:47;1.9769696;;1.9764787;;;;;;;
44530;SPS30;30240;47.418;0.700;2023-04-25T11:33:09;2.6174648;;2.6119413;;;;;;;
44530;SPS30;30240;47.418;0.700;2023-04-25T11:35:34;2.147532;;2.1431007;;;;;;;
44530;SPS30;30240;47.418;0.700;2023-04-25T11:37:59;2.4259248;;2.4175808;;;;;;;
44530;SPS30;30240;47.418;0.700;2023-04-25T11:40:24;2.4259248;;2.4175808;;;;;;;
44530;SPS30;30240;47.418;0.700;2023-04-25T11:42:48;2.7267523;;2.7248137;;;;;;;
44530;SPS30;30240;47.418;0.700;2023-04-25T11:45:14;2.3707895;;2.3545425;;;;;;;
44530;SPS30;30240;47.418;0.700;2023-04-25T11:47:39;1.7346839;;1.7264761;;;;;;;
44530;SPS30;30240;47.418;0.700;2023-04-25T11:50:04;1.9527553;;1.9525934;;;;;;;
44530;SPS30;30240;47.418;0.700;2023-04-25T11:52:37;1.8622063;;1.8622063;;;;;;;
44530;SPS30;30240;47.418;0.700;2023-04-25T11:54:53;1.8622063;;1.8622063;;;;;;;
44530;SPS30;30240;47.418;0.700;2023-04-25T11:57:19;2.0868027;;2.0867972;;;;;;;
44530;SPS30;30240;47.418;0.700;2023-04-25T11:59:43;2.4735413;;2.47019;;;;;;;
44530;SPS30;30240;47.418;0.700;2023-04-25T12:02:08;1.7422816;;1.7415603;;;;;;;
44530;SPS30;30240;47.418;0.700;2023-04-25T12:04:33;1.7685202;;1.7683384;;;;;;;
44530;SPS30;30240;47.418;0.700;2023-04-25T12:06:58;1.7685202;;1.7683384;;;;;;;